Terminal Aerodrome Forecast
Issued by NWS

Home | Current Version | Previous Version | Text Only | Print | Product List | Glossary On
Versions: 1 2 3 4 5 6 7 8 9 10 11 12 13 14 15 16 17 18 19 20 21
000
FTUS43 KGRR 231135
TAFMKG
TAF
KMKG 231135Z 2312/2412 35007KT P6SM -RA SCT008 BKN023 OVC050
     FM231400 03008KT 2SM -SHRA BR OVC015
     FM240000 32013G26KT 3SM SHRA BR OVC010 WS020/34030KT=

USA.gov is the U.S. government's official web portal to all federal, state and local government web resources and services.